createdAt,value
2022-09-25T00:00:37.606Z,1015.5
2022-09-25T00:02:35.751Z,1015.5
2022-09-25T00:04:35.601Z,1015.62
2022-09-25T00:06:35.408Z,1015.62
2022-09-25T00:08:35.854Z,1015.66
2022-09-25T00:10:35.483Z,1015.66
2022-09-25T00:12:35.855Z,1015.76
2022-09-25T00:14:35.401Z,1015.76
2022-09-25T00:16:35.575Z,1015.81
2022-09-25T00:18:35.579Z,1015.81
2022-09-25T00:20:35.851Z,1015.75
2022-09-25T00:22:35.582Z,1015.75
2022-09-25T00:24:36.162Z,1015.65
2022-09-25T00:26:35.329Z,1015.65
2022-09-25T00:28:40.875Z,1015.61
2022-09-25T00:30:35.883Z,1015.61
2022-09-25T00:32:35.259Z,1015.8
2022-09-25T00:34:35.141Z,1015.8
2022-09-25T00:36:35.740Z,1015.69
2022-09-25T00:38:35.672Z,1015.69
2022-09-25T00:40:35.497Z,1015.61
2022-09-25T00:42:35.160Z,1015.61
2022-09-25T00:44:35.681Z,1015.67
2022-09-25T00:46:35.918Z,1015.67
2022-09-25T00:48:35.412Z,1015.52
2022-09-25T00:50:35.231Z,1015.52
2022-09-25T00:52:35.156Z,1015.58
2022-09-25T00:54:35.729Z,1015.58
2022-09-25T00:56:35.632Z,1015.63
2022-09-25T00:58:34.935Z,1015.63
2022-09-25T01:00:40.268Z,1015.68
2022-09-25T01:02:36.486Z,1015.68
2022-09-25T01:04:35.879Z,1015.6
2022-09-25T01:06:35.374Z,1015.6
2022-09-25T01:08:35.397Z,1015.64
2022-09-25T01:10:35.462Z,1015.64
2022-09-25T01:12:35.375Z,1015.75
2022-09-25T01:14:35.156Z,1015.75
2022-09-25T01:16:35.659Z,1015.75
2022-09-25T01:18:35.016Z,1015.75
2022-09-25T01:20:35.486Z,1015.7
2022-09-25T01:22:35.578Z,1015.7
2022-09-25T01:24:36.050Z,1015.68
2022-09-25T01:26:38.501Z,1015.68
2022-09-25T01:28:35.108Z,1015.76
2022-09-25T01:30:36.000Z,1015.76
2022-09-25T01:32:35.453Z,1015.67
2022-09-25T01:34:35.075Z,1015.67
2022-09-25T01:36:35.232Z,1015.81
2022-09-25T01:38:35.538Z,1015.81
2022-09-25T01:40:35.300Z,1015.69
2022-09-25T01:42:35.700Z,1015.69
2022-09-25T01:44:36.173Z,1015.66
2022-09-25T01:46:35.541Z,1015.66
2022-09-25T01:48:35.433Z,1015.64
2022-09-25T01:50:35.343Z,1015.7
2022-09-25T01:52:35.518Z,1015.7
2022-09-25T01:54:36.005Z,1015.62
2022-09-25T01:56:35.287Z,1015.62
2022-09-25T01:58:35.540Z,1015.54
2022-09-25T02:00:37.759Z,1015.54
2022-09-25T02:02:36.420Z,1015.59
2022-09-25T02:04:35.177Z,1015.59
2022-09-25T02:06:35.064Z,1015.54
2022-09-25T02:08:35.095Z,1015.54
2022-09-25T02:10:35.745Z,1015.62
2022-09-25T02:12:35.777Z,1015.62
2022-09-25T02:14:36.013Z,1015.51
2022-09-25T02:16:35.274Z,1015.51
2022-09-25T02:18:35.300Z,1015.39
2022-09-25T02:20:35.269Z,1015.39
2022-09-25T02:22:35.871Z,1015.52
2022-09-25T02:24:35.868Z,1015.52
2022-09-25T02:26:35.287Z,1015.61
2022-09-25T02:28:35.960Z,1015.61
2022-09-25T02:30:35.558Z,1015.56
2022-09-25T02:32:35.160Z,1015.56
2022-09-25T02:34:38.016Z,1015.68
2022-09-25T02:36:35.220Z,1015.68
2022-09-25T02:38:35.676Z,1015.75
2022-09-25T02:40:36.499Z,1015.75
2022-09-25T02:42:35.521Z,1015.63
2022-09-25T02:44:35.987Z,1015.63
2022-09-25T02:46:35.693Z,1015.68
2022-09-25T02:48:35.228Z,1015.68
2022-09-25T02:50:35.428Z,1015.68
2022-09-25T02:52:34.962Z,1015.68
2022-09-25T02:54:35.432Z,1015.71
2022-09-25T02:56:35.835Z,1015.71
2022-09-25T02:58:35.643Z,1015.68
2022-09-25T03:00:38.905Z,1015.68
2022-09-25T03:02:36.505Z,1015.71
2022-09-25T03:04:35.693Z,1015.71
2022-09-25T03:06:35.437Z,1015.71
2022-09-25T03:08:35.384Z,1015.71
2022-09-25T03:10:35.335Z,1015.67
2022-09-25T03:12:35.821Z,1015.67
2022-09-25T03:14:36.006Z,1015.68
2022-09-25T03:16:35.966Z,1015.68
2022-09-25T03:18:35.120Z,1015.69
2022-09-25T03:20:35.813Z,1015.69
2022-09-25T03:22:35.547Z,1015.6
2022-09-25T03:24:35.989Z,1015.6
2022-09-25T03:26:36.023Z,1015.57
2022-09-25T03:28:35.224Z,1015.57
2022-09-25T03:30:35.638Z,1015.5
2022-09-25T03:32:35.690Z,1015.5
2022-09-25T03:34:36.062Z,1015.49
2022-09-25T03:36:35.938Z,1015.49
2022-09-25T03:38:35.486Z,1015.51
2022-09-25T03:40:35.827Z,1015.51
2022-09-25T03:42:35.739Z,1015.46
2022-09-25T03:44:35.614Z,1015.46
2022-09-25T03:46:35.757Z,1015.38
2022-09-25T03:48:35.547Z,1015.38
2022-09-25T03:50:35.921Z,1015.53
2022-09-25T03:52:35.538Z,1015.53
2022-09-25T03:54:35.355Z,1015.55
2022-09-25T03:56:35.728Z,1015.55
2022-09-25T03:58:35.925Z,1015.52
2022-09-25T04:00:38.435Z,1015.52
2022-09-25T04:02:35.707Z,1015.49
2022-09-25T04:04:35.733Z,1015.49
2022-09-25T04:06:35.998Z,1015.43
2022-09-25T04:08:35.464Z,1015.43
2022-09-25T04:10:35.101Z,1015.43
2022-09-25T04:12:35.570Z,1015.43
2022-09-25T04:14:35.479Z,1015.36
2022-09-25T04:16:35.737Z,1015.36
2022-09-25T04:18:40.113Z,1015.37
2022-09-25T04:20:36.025Z,1015.37
2022-09-25T04:22:35.264Z,1015.33
2022-09-25T04:24:35.267Z,1015.33
2022-09-25T04:26:35.306Z,1015.4
2022-09-25T04:28:35.974Z,1015.4
2022-09-25T04:30:35.490Z,1015.17
2022-09-25T04:32:35.447Z,1015.17
2022-09-25T04:34:35.726Z,1015.2
2022-09-25T04:36:35.885Z,1015.2
2022-09-25T04:38:35.152Z,1015.12
2022-09-25T04:40:35.860Z,1015.12
2022-09-25T04:42:35.383Z,1015.19
2022-09-25T04:44:35.690Z,1015.19
2022-09-25T04:46:44.285Z,1015.19
2022-09-25T04:48:35.135Z,1015.19
2022-09-25T04:50:35.729Z,1015.21
2022-09-25T04:52:35.299Z,1015.21
2022-09-25T04:54:35.709Z,1015.19
2022-09-25T04:56:39.124Z,1015.19
2022-09-25T04:58:35.465Z,1015.23
2022-09-25T05:00:37.731Z,1015.23
2022-09-25T05:02:35.948Z,1015.19
2022-09-25T05:04:42.273Z,1015.3
2022-09-25T05:06:35.890Z,1015.3
2022-09-25T05:08:35.346Z,1015.3
2022-09-25T05:10:35.478Z,1015.21
2022-09-25T05:12:35.708Z,1015.18
2022-09-25T05:14:35.803Z,1015.18
2022-09-25T05:16:36.091Z,1015.25
2022-09-25T05:18:36.101Z,1015.25
2022-09-25T05:20:35.084Z,1015.36
2022-09-25T05:22:35.749Z,1015.36
2022-09-25T05:24:36.011Z,1015.25
2022-09-25T05:26:35.265Z,1015.25
2022-09-25T05:28:35.112Z,1015.3
2022-09-25T05:30:35.293Z,1015.3
2022-09-25T05:32:35.404Z,1015.35
2022-09-25T05:34:36.141Z,1015.35
2022-09-25T05:36:35.704Z,1015.36
2022-09-25T05:38:35.942Z,1015.36
2022-09-25T05:40:35.981Z,1015.37
2022-09-25T05:42:35.970Z,1015.37
2022-09-25T05:44:35.644Z,1015.44
2022-09-25T05:46:35.517Z,1015.44
2022-09-25T05:48:35.524Z,1015.39
2022-09-25T05:50:35.608Z,1015.39
2022-09-25T05:52:35.193Z,1015.34
2022-09-25T05:54:35.765Z,1015.34
2022-09-25T05:56:35.229Z,1015.41
2022-09-25T05:58:35.583Z,1015.41
2022-09-25T06:00:38.157Z,1015.36
2022-09-25T06:02:35.654Z,1015.36
2022-09-25T06:04:35.963Z,1015.42
2022-09-25T06:06:38.912Z,1015.42
2022-09-25T06:08:35.277Z,1015.34
2022-09-25T06:10:35.839Z,1015.34
2022-09-25T06:12:35.377Z,1015.37
2022-09-25T06:14:35.627Z,1015.37
2022-09-25T06:16:36.010Z,1015.29
2022-09-25T06:18:35.600Z,1015.29
2022-09-25T06:20:39.246Z,1015.23
2022-09-25T06:22:35.703Z,1015.23
2022-09-25T06:24:35.666Z,1015.2
2022-09-25T06:26:35.788Z,1015.2
2022-09-25T06:28:35.684Z,1015.32
2022-09-25T06:30:35.347Z,1015.32
2022-09-25T06:32:35.701Z,1015.3
2022-09-25T06:34:35.838Z,1015.3
2022-09-25T06:36:35.714Z,1015.3
2022-09-25T06:38:35.049Z,1015.3
2022-09-25T06:40:35.676Z,1015.39
2022-09-25T06:42:35.516Z,1015.39
2022-09-25T06:44:35.986Z,1015.32
2022-09-25T06:46:35.926Z,1015.32
2022-09-25T06:48:35.268Z,1015.37
2022-09-25T06:50:35.450Z,1015.37
2022-09-25T06:52:35.242Z,1015.34
2022-09-25T06:54:38.451Z,1015.34
2022-09-25T06:56:35.328Z,1015.36
2022-09-25T06:58:35.715Z,1015.36
2022-09-25T07:00:38.998Z,1015.31
2022-09-25T07:02:35.797Z,1015.31
2022-09-25T07:04:35.492Z,1015.34
2022-09-25T07:06:35.300Z,1015.34
2022-09-25T07:08:35.018Z,1015.26
2022-09-25T07:10:35.753Z,1015.26
2022-09-25T07:12:35.269Z,1015.35
2022-09-25T07:14:35.328Z,1015.35
2022-09-25T07:16:35.813Z,1015.41
2022-09-25T07:18:35.384Z,1015.41
2022-09-25T07:20:35.291Z,1015.37
2022-09-25T07:22:35.607Z,1015.37
2022-09-25T07:24:35.375Z,1015.48
2022-09-25T07:26:39.788Z,1015.48
2022-09-25T07:28:35.707Z,1015.51
2022-09-25T07:30:36.029Z,1015.51
2022-09-25T07:32:35.437Z,1015.52
2022-09-25T07:34:35.934Z,1015.52
2022-09-25T07:36:36.016Z,1015.54
2022-09-25T07:38:35.845Z,1015.54
2022-09-25T07:40:35.635Z,1015.33
2022-09-25T07:42:35.134Z,1015.33
2022-09-25T07:45:04.677Z,1015.32
2022-09-25T07:46:36.017Z,1015.32
2022-09-25T07:48:35.620Z,1015.38
2022-09-25T07:50:38.373Z,1015.38
2022-09-25T07:52:35.769Z,1015.4
2022-09-25T07:54:36.246Z,1015.4
2022-09-25T07:56:40.778Z,1015.44
2022-09-25T07:58:35.758Z,1015.44
2022-09-25T08:00:38.067Z,1015.44
2022-09-25T08:02:36.013Z,1015.44
2022-09-25T08:04:35.964Z,1015.43
2022-09-25T08:06:35.442Z,1015.43
2022-09-25T08:08:35.278Z,1015.48
2022-09-25T08:10:35.752Z,1015.48
2022-09-25T08:12:35.220Z,1015.46
2022-09-25T08:14:38.449Z,1015.46
2022-09-25T08:16:36.608Z,1015.52
2022-09-25T08:18:35.171Z,1015.52
2022-09-25T08:20:35.551Z,1015.43
2022-09-25T08:22:35.196Z,1015.43
2022-09-25T08:24:36.004Z,1015.5
2022-09-25T08:26:35.502Z,1015.5
2022-09-25T08:28:35.753Z,1015.48
2022-09-25T08:30:35.785Z,1015.48
2022-09-25T08:32:35.063Z,1015.57
2022-09-25T08:35:10.888Z,1015.56
2022-09-25T08:36:35.375Z,1015.56
2022-09-25T08:38:35.904Z,1015.56
2022-09-25T08:40:36.111Z,1015.42
2022-09-25T08:42:35.150Z,1015.39
2022-09-25T08:44:35.777Z,1015.39
2022-09-25T08:46:35.636Z,1015.42
2022-09-25T08:48:35.780Z,1015.42
2022-09-25T08:50:35.133Z,1015.46
2022-09-25T08:52:35.677Z,1015.46
2022-09-25T08:54:36.015Z,1015.48
2022-09-25T08:56:35.896Z,1015.48
2022-09-25T08:58:35.365Z,1015.38
2022-09-25T09:00:39.248Z,1015.38
2022-09-25T09:02:36.155Z,1015.4
2022-09-25T09:04:35.508Z,1015.4
2022-09-25T09:06:35.783Z,1015.38
2022-09-25T09:08:35.326Z,1015.38
2022-09-25T09:10:35.761Z,1015.34
2022-09-25T09:12:35.407Z,1015.34
2022-09-25T09:14:35.599Z,1015.44
2022-09-25T09:16:35.798Z,1015.44
2022-09-25T09:18:35.344Z,1015.44
2022-09-25T09:20:35.465Z,1015.44
2022-09-25T09:22:35.785Z,1015.38
2022-09-25T09:24:35.935Z,1015.38
2022-09-25T09:26:35.689Z,1015.43
2022-09-25T09:28:35.068Z,1015.43
2022-09-25T09:30:40.335Z,1015.36
2022-09-25T09:32:35.817Z,1015.36
2022-09-25T09:35:06.745Z,1015.45
2022-09-25T09:36:35.343Z,1015.45
2022-09-25T09:38:35.944Z,1015.38
2022-09-25T09:40:35.790Z,1015.38
2022-09-25T09:42:35.622Z,1015.55
2022-09-25T09:44:35.872Z,1015.55
2022-09-25T09:46:35.940Z,1015.57
2022-09-25T09:48:35.900Z,1015.57
2022-09-25T09:50:40.416Z,1015.5
2022-09-25T09:52:35.609Z,1015.5
2022-09-25T09:54:35.801Z,1015.47
2022-09-25T09:56:35.977Z,1015.47
2022-09-25T09:58:35.496Z,1015.55
2022-09-25T10:00:39.706Z,1015.55
2022-09-25T10:02:36.287Z,1015.52
2022-09-25T10:04:36.027Z,1015.52
2022-09-25T10:06:35.960Z,1015.43
2022-09-25T10:08:35.498Z,1015.43
2022-09-25T10:10:36.012Z,1015.46
2022-09-25T10:12:35.958Z,1015.46
2022-09-25T10:14:36.223Z,1015.42
2022-09-25T10:16:35.561Z,1015.42
2022-09-25T10:18:36.458Z,1015.44
2022-09-25T10:20:35.776Z,1015.44
2022-09-25T10:22:39.426Z,1015.48
2022-09-25T10:24:36.415Z,1015.48
2022-09-25T10:26:35.314Z,1015.47
2022-09-25T10:28:36.306Z,1015.47
2022-09-25T10:30:35.263Z,1015.32
2022-09-25T10:32:35.486Z,1015.32
2022-09-25T10:34:35.933Z,1015.33
2022-09-25T10:36:36.240Z,1015.33
2022-09-25T10:38:35.868Z,1015.3
2022-09-25T10:40:36.120Z,1015.3
2022-09-25T10:42:36.085Z,1015.17
2022-09-25T10:44:35.431Z,1015.17
2022-09-25T10:46:35.528Z,1015.15
2022-09-25T10:48:35.574Z,1015.15
2022-09-25T10:50:35.359Z,1015.11
2022-09-25T10:52:35.814Z,1015.11
2022-09-25T10:54:41.913Z,1015.25
2022-09-25T10:56:36.195Z,1015.25
2022-09-25T10:58:35.949Z,1015.11
2022-09-25T11:00:38.250Z,1015.11
2022-09-25T11:02:37.165Z,1015.16
2022-09-25T11:04:35.880Z,1015.16
2022-09-25T11:06:35.691Z,1015.08
2022-09-25T11:08:35.739Z,1015.08
2022-09-25T11:10:35.762Z,1015.12
2022-09-25T11:12:35.802Z,1015.12
2022-09-25T11:14:35.874Z,1015.01
2022-09-25T11:16:36.509Z,1015.01
2022-09-25T11:18:35.385Z,1015.03
2022-09-25T11:20:35.567Z,1015.03
2022-09-25T11:22:36.219Z,1014.97
2022-09-25T11:24:35.267Z,1014.97
2022-09-25T11:26:36.110Z,1014.93
2022-09-25T11:28:35.904Z,1014.93
2022-09-25T11:30:36.199Z,1014.9
2022-09-25T11:32:36.107Z,1014.9
2022-09-25T11:34:35.931Z,1014.91
2022-09-25T11:36:35.901Z,1014.91
2022-09-25T11:38:36.697Z,1014.79
2022-09-25T11:40:36.672Z,1014.79
2022-09-25T11:42:35.637Z,1014.86
2022-09-25T11:44:35.629Z,1014.86
2022-09-25T11:46:36.847Z,1014.96
2022-09-25T11:48:36.188Z,1014.96
2022-09-25T11:50:35.337Z,1014.86
2022-09-25T11:52:36.626Z,1014.86
2022-09-25T11:55:06.249Z,1014.83
2022-09-25T11:56:35.916Z,1014.83
2022-09-25T11:58:35.664Z,1014.9
2022-09-25T12:00:38.855Z,1014.82
2022-09-25T12:02:36.108Z,1014.82
2022-09-25T12:04:41.259Z,1014.92
2022-09-25T12:06:36.284Z,1014.92
2022-09-25T12:08:35.768Z,1014.71
2022-09-25T12:10:36.776Z,1014.71
2022-09-25T12:12:35.768Z,1014.65
2022-09-25T12:14:35.737Z,1014.65
2022-09-25T12:16:36.208Z,1014.68
2022-09-25T12:18:35.706Z,1014.68
2022-09-25T12:20:36.384Z,1014.64
2022-09-25T12:22:35.941Z,1014.64
2022-09-25T12:24:40.510Z,1014.69
2022-09-25T12:26:35.237Z,1014.69
2022-09-25T12:28:35.416Z,1014.72
2022-09-25T12:30:36.164Z,1014.72
2022-09-25T12:32:35.082Z,1014.65
2022-09-25T12:34:35.471Z,1014.65
2022-09-25T12:36:35.608Z,1014.5
2022-09-25T12:38:35.476Z,1014.5
2022-09-25T12:40:35.862Z,1014.57
2022-09-25T12:42:34.995Z,1014.57
2022-09-25T12:44:39.022Z,1014.5
2022-09-25T12:46:35.501Z,1014.5
2022-09-25T12:48:36.018Z,1014.47
2022-09-25T12:50:35.935Z,1014.47
2022-09-25T12:52:35.629Z,1014.46
2022-09-25T12:54:35.513Z,1014.46
2022-09-25T12:56:35.803Z,1014.32
2022-09-25T12:58:35.201Z,1014.32
2022-09-25T13:00:38.215Z,1014.31
2022-09-25T13:02:36.280Z,1014.31
2022-09-25T13:04:35.281Z,1014.36
2022-09-25T13:06:35.177Z,1014.36
2022-09-25T13:08:35.716Z,1014.23
2022-09-25T13:10:35.998Z,1014.23
2022-09-25T13:12:35.079Z,1014.25
2022-09-25T13:14:35.754Z,1014.25
2022-09-25T13:16:36.283Z,1014.21
2022-09-25T13:18:35.027Z,1014.21
2022-09-25T13:20:35.146Z,1014.33
2022-09-25T13:22:35.907Z,1014.33
2022-09-25T13:24:36.091Z,1014.24
2022-09-25T13:26:35.337Z,1014.24
2022-09-25T13:28:35.223Z,1014.18
2022-09-25T13:30:35.720Z,1014.18
2022-09-25T13:32:35.881Z,1014.19
2022-09-25T13:34:35.972Z,1014.19
2022-09-25T13:36:35.448Z,1014.19
2022-09-25T13:38:35.680Z,1014.19
2022-09-25T13:40:35.343Z,1014.17
2022-09-25T13:42:35.329Z,1014.17
2022-09-25T13:44:35.771Z,1014.07
2022-09-25T13:46:36.037Z,1014.07
2022-09-25T13:48:41.439Z,1013.98
2022-09-25T13:50:35.956Z,1013.98
2022-09-25T13:52:35.149Z,1014.03
2022-09-25T13:54:35.352Z,1014.03
2022-09-25T13:56:35.446Z,1013.96
2022-09-25T13:58:35.281Z,1013.96
2022-09-25T14:00:40.700Z,1014.03
2022-09-25T14:02:36.072Z,1014.03
2022-09-25T14:04:35.543Z,1014.2
2022-09-25T14:06:38.910Z,1014.2
2022-09-25T14:08:35.304Z,1014.08
2022-09-25T14:10:35.902Z,1014.08
2022-09-25T14:12:35.507Z,1013.93
2022-09-25T14:14:35.662Z,1013.93
2022-09-25T14:16:35.371Z,1013.89
2022-09-25T14:18:34.931Z,1013.89
2022-09-25T14:20:35.791Z,1013.96
2022-09-25T14:22:35.982Z,1013.96
2022-09-25T14:24:35.595Z,1013.85
2022-09-25T14:26:35.778Z,1013.85
2022-09-25T14:28:35.039Z,1013.8
2022-09-25T14:30:35.190Z,1013.8
2022-09-25T14:33:07.722Z,1013.71
2022-09-25T14:34:35.386Z,1013.71
2022-09-25T14:36:35.491Z,1013.83
2022-09-25T14:38:35.708Z,1013.83
2022-09-25T14:40:36.038Z,1013.69
2022-09-25T14:42:35.533Z,1013.69
2022-09-25T14:44:35.919Z,1013.66
2022-09-25T14:46:35.743Z,1013.66
2022-09-25T14:48:35.232Z,1013.59
2022-09-25T14:50:35.913Z,1013.59
2022-09-25T14:52:35.360Z,1013.63
2022-09-25T14:54:35.911Z,1013.63
2022-09-25T14:56:35.894Z,1013.59
2022-09-25T14:58:35.191Z,1013.59
2022-09-25T15:00:38.602Z,1013.57
2022-09-25T15:02:35.589Z,1013.57
2022-09-25T15:04:35.657Z,1013.43
2022-09-25T15:06:39.155Z,1013.43
2022-09-25T15:08:35.581Z,1013.51
2022-09-25T15:10:35.271Z,1013.51
2022-09-25T15:12:35.819Z,1013.46
2022-09-25T15:14:35.860Z,1013.46
2022-09-25T15:16:36.429Z,1013.43
2022-09-25T15:18:35.170Z,1013.43
2022-09-25T15:20:35.748Z,1013.35
2022-09-25T15:22:35.668Z,1013.35
2022-09-25T15:24:35.795Z,1013.43
2022-09-25T15:26:35.200Z,1013.35
2022-09-25T15:28:35.243Z,1013.35
2022-09-25T15:30:35.621Z,1013.38
2022-09-25T15:32:35.698Z,1013.38
2022-09-25T15:34:35.212Z,1013.36
2022-09-25T15:36:35.326Z,1013.36
2022-09-25T15:38:35.563Z,1013.35
2022-09-25T15:40:35.529Z,1013.35
2022-09-25T15:42:35.709Z,1013.3
2022-09-25T15:44:41.471Z,1013.3
2022-09-25T15:46:36.284Z,1013.33
2022-09-25T15:48:35.634Z,1013.33
2022-09-25T15:50:35.218Z,1013.21
2022-09-25T15:52:35.062Z,1013.21
2022-09-25T15:54:35.147Z,1013.12
2022-09-25T15:56:35.691Z,1013.12
2022-09-25T15:58:35.062Z,1013.15
2022-09-25T16:00:35.355Z,1013.15
2022-09-25T16:02:36.515Z,1013.14
2022-09-25T16:04:38.775Z,1013.14
2022-09-25T16:06:35.178Z,1013.07
2022-09-25T16:08:35.692Z,1013.07
2022-09-25T16:10:35.722Z,1013.03
2022-09-25T16:12:35.842Z,1013.03
2022-09-25T16:14:35.443Z,1013.08
2022-09-25T16:16:36.302Z,1013.08
2022-09-25T16:18:40.040Z,1013.01
2022-09-25T16:20:36.098Z,1013.01
2022-09-25T16:22:36.245Z,1012.96
2022-09-25T16:24:35.652Z,1012.96
2022-09-25T16:26:35.534Z,1013
2022-09-25T16:28:36.116Z,1013
2022-09-25T16:30:38.634Z,1012.96
2022-09-25T16:32:35.595Z,1012.96
2022-09-25T16:34:36.104Z,1013.05
2022-09-25T16:36:50.868Z,1013.05
2022-09-25T16:38:35.872Z,1012.88
2022-09-25T16:40:36.450Z,1012.88
2022-09-25T16:42:38.714Z,1013.01
2022-09-25T16:44:35.913Z,1013.01
2022-09-25T16:46:36.175Z,1012.92
2022-09-25T16:48:35.560Z,1012.92
2022-09-25T16:50:35.575Z,1012.84
2022-09-25T16:52:36.207Z,1012.84
2022-09-25T16:54:36.030Z,1012.94
2022-09-25T16:56:36.433Z,1012.94
2022-09-25T16:58:35.994Z,1012.68
2022-09-25T17:00:37.815Z,1012.68
2022-09-25T17:02:37.317Z,1012.7
2022-09-25T17:04:36.000Z,1012.7
2022-09-25T17:06:36.015Z,1012.7
2022-09-25T17:08:35.797Z,1012.7
2022-09-25T17:10:36.630Z,1012.6
2022-09-25T17:12:36.353Z,1012.6
2022-09-25T17:14:36.300Z,1012.54
2022-09-25T17:16:35.801Z,1012.54
2022-09-25T17:18:36.298Z,1012.47
2022-09-25T17:20:36.778Z,1012.47
2022-09-25T17:22:36.188Z,1012.55
2022-09-25T17:24:35.698Z,1012.55
2022-09-25T17:26:36.073Z,1012.43
2022-09-25T17:28:36.306Z,1012.43
2022-09-25T17:30:35.952Z,1012.46
2022-09-25T17:32:35.459Z,1012.46
2022-09-25T17:34:36.304Z,1012.44
2022-09-25T17:36:36.214Z,1012.44
2022-09-25T17:38:35.312Z,1012.42
2022-09-25T17:40:35.494Z,1012.42
2022-09-25T17:42:37.053Z,1012.42
2022-09-25T17:44:35.605Z,1012.42
2022-09-25T17:46:36.586Z,1012.36
2022-09-25T17:48:36.245Z,1012.36
2022-09-25T17:50:37.062Z,1012.39
2022-09-25T17:52:36.726Z,1012.39
2022-09-25T17:54:39.433Z,1012.32
2022-09-25T17:56:38.198Z,1012.32
2022-09-25T17:58:37.205Z,1012.27
2022-09-25T18:00:39.131Z,1012.27
2022-09-25T18:02:37.226Z,1012.25
2022-09-25T18:04:35.973Z,1012.25
2022-09-25T18:06:35.534Z,1012.35
2022-09-25T18:08:36.440Z,1012.35
2022-09-25T18:10:36.071Z,1012.35
2022-09-25T18:12:35.327Z,1012.35
2022-09-25T18:14:35.227Z,1012.47
2022-09-25T18:16:35.741Z,1012.47
2022-09-25T18:18:36.214Z,1012.37
2022-09-25T18:20:36.992Z,1012.37
2022-09-25T18:22:35.838Z,1012.37
2022-09-25T18:24:35.468Z,1012.37
2022-09-25T18:26:42.572Z,1012.3
2022-09-25T18:28:36.332Z,1012.3
2022-09-25T18:30:35.605Z,1012.21
2022-09-25T18:32:36.003Z,1012.21
2022-09-25T18:34:36.779Z,1012.03
2022-09-25T18:36:35.692Z,1012.03
2022-09-25T18:38:35.351Z,1012
2022-09-25T18:40:35.982Z,1012
2022-09-25T18:42:36.171Z,1011.89
2022-09-25T18:44:42.003Z,1011.83
2022-09-25T18:46:36.164Z,1011.83
2022-09-25T18:48:35.856Z,1011.66
2022-09-25T18:50:40.646Z,1011.66
2022-09-25T18:52:35.203Z,1011.71
2022-09-25T18:54:35.307Z,1011.71
2022-09-25T18:56:35.964Z,1011.66
2022-09-25T18:58:35.749Z,1011.66
2022-09-25T19:00:38.433Z,1011.6
2022-09-25T19:02:37.569Z,1011.6
2022-09-25T19:04:36.301Z,1011.5
2022-09-25T19:06:36.477Z,1011.5
2022-09-25T19:08:37.585Z,1011.48
2022-09-25T19:10:35.613Z,1011.48
2022-09-25T19:12:36.134Z,1011.43
2022-09-25T19:14:36.524Z,1011.43
2022-09-25T19:16:38.247Z,1011.29
2022-09-25T19:18:35.805Z,1011.29
2022-09-25T19:20:36.525Z,1011.21
2022-09-25T19:22:35.222Z,1011.21
2022-09-25T19:24:36.469Z,1011.29
2022-09-25T19:26:36.054Z,1011.29
2022-09-25T19:28:35.851Z,1011.34
2022-09-25T19:30:35.475Z,1011.34
2022-09-25T19:32:35.893Z,1011.27
2022-09-25T19:34:35.420Z,1011.27
2022-09-25T19:36:36.200Z,1011.17
2022-09-25T19:38:36.326Z,1011.17
2022-09-25T19:40:35.941Z,1011.1
2022-09-25T19:42:35.977Z,1011.1
2022-09-25T19:44:37.008Z,1011.14
2022-09-25T19:46:36.825Z,1011.14
2022-09-25T19:48:36.063Z,1011.02
2022-09-25T19:50:36.450Z,1011.02
2022-09-25T19:52:35.266Z,1010.94
2022-09-25T19:54:35.625Z,1010.94
2022-09-25T19:56:35.275Z,1011.07
2022-09-25T19:58:36.434Z,1011.07
2022-09-25T20:00:38.853Z,1011.04
2022-09-25T20:02:36.742Z,1011.04
2022-09-25T20:04:42.508Z,1010.82
2022-09-25T20:06:35.251Z,1010.82
2022-09-25T20:08:37.449Z,1010.84
2022-09-25T20:10:36.139Z,1010.84
2022-09-25T20:12:36.290Z,1010.76
2022-09-25T20:14:36.128Z,1010.76
2022-09-25T20:16:37.361Z,1010.84
2022-09-25T20:18:35.966Z,1010.84
2022-09-25T20:20:36.327Z,1010.59
2022-09-25T20:22:35.972Z,1010.59
2022-09-25T20:24:35.689Z,1010.72
2022-09-25T20:26:37.160Z,1010.72
2022-09-25T20:28:36.013Z,1010.7
2022-09-25T20:30:37.114Z,1010.7
2022-09-25T20:32:36.047Z,1010.72
2022-09-25T20:34:36.030Z,1010.72
2022-09-25T20:36:36.192Z,1010.66
2022-09-25T20:38:36.002Z,1010.66
2022-09-25T20:40:36.052Z,1010.61
2022-09-25T20:42:36.013Z,1010.61
2022-09-25T20:44:35.866Z,1010.71
2022-09-25T20:46:36.666Z,1010.71
2022-09-25T20:48:35.320Z,1010.68
2022-09-25T20:50:36.422Z,1010.68
2022-09-25T20:54:36.425Z,1010.68
2022-09-25T20:55:21.038Z,1010.55
2022-09-25T20:58:36.297Z,1010.55
2022-09-25T21:02:36.778Z,1010.5
2022-09-25T21:06:35.488Z,1010.51
2022-09-25T21:10:36.048Z,1010.32
2022-09-25T21:14:36.524Z,1010.34
2022-09-25T21:18:35.679Z,1010.28
2022-09-25T21:22:36.068Z,1010.25
2022-09-25T21:26:35.847Z,1010.25
2022-09-25T21:30:35.277Z,1010.12
2022-09-25T21:34:35.762Z,1010.19
2022-09-25T21:38:35.514Z,1010.03
2022-09-25T21:42:35.814Z,1009.91
2022-09-25T21:46:36.342Z,1009.78
2022-09-25T21:50:35.688Z,1009.8
2022-09-25T21:54:35.967Z,1009.77
2022-09-25T21:58:35.125Z,1009.65
2022-09-25T22:02:36.020Z,1009.66
2022-09-25T22:06:35.282Z,1009.6
2022-09-25T22:10:36.054Z,1009.31
2022-09-25T22:14:39.112Z,1009.41
2022-09-25T22:18:35.057Z,1009.23
2022-09-25T22:22:35.199Z,1009.24
2022-09-25T22:26:35.435Z,1009.08
2022-09-25T22:30:36.131Z,1009.04
2022-09-25T22:34:35.558Z,1008.96
2022-09-25T22:38:35.009Z,1008.76
2022-09-25T22:42:35.739Z,1008.86
2022-09-25T22:46:35.596Z,1008.78
2022-09-25T22:50:35.198Z,1008.77
2022-09-25T22:54:35.374Z,1008.7
2022-09-25T22:58:35.969Z,1008.61
2022-09-25T23:02:36.021Z,1008.37
2022-09-25T23:06:35.547Z,1008.47
2022-09-25T23:11:02.593Z,1008.28
2022-09-25T23:14:35.536Z,1008.18
2022-09-25T23:18:35.579Z,1008.19
2022-09-25T23:22:35.506Z,1008.06
2022-09-25T23:26:35.469Z,1007.91
2022-09-25T23:30:35.113Z,1007.95
2022-09-25T23:34:36.003Z,1007.79
2022-09-25T23:38:35.588Z,1007.76
2022-09-25T23:42:35.620Z,1007.7
2022-09-25T23:46:35.397Z,1007.64
2022-09-25T23:50:38.655Z,1007.65
2022-09-25T23:54:35.543Z,1007.48
2022-09-25T23:58:35.159Z,1007.42
